Airfield :
LOGIN :

Register | Disclaimer

   EN    FR    IT 

 










Legend :    VFR   Marginal VFR   IFR   Intensive IFR   Very Intensive IFR
Visi :
Ceiling :
>= 8 km
>= 3000ft
5 to 8 km
1000 to 3000 ft
1500m to 5 km
500 to 1000 ft
800 to 1500m
200 to 500 ft
< 800m
< 200 ft
Symbols :   Thunderstorms  Fog  Heavy snow  Heavy precipitations  Wind > 20 kt
SIGMETs :     Misc.  Thunderstorms  Icing  Turbulence  Mountain Waves  Volcanic Ashes







- Airport Elevation : 274 ft
- IATA code : PUY


LDPL - Pula

CURRENT METAR :
  • 252300Z AUTO 08029G40KT CAVOK M03/M12 Q1011

EXPIRED METARs :
  • 252230Z AUTO 07026G37KT CAVOK M03/M12 Q1012
  • 252200Z 07032KT 9999 FEW033 M03/M12 Q1012 NOSIG
  • 252130Z 07030G41KT 9999 FEW033 M03/M13 Q1012 NOSIG
  • 252100Z 07028G38KT 9999 FEW033 M03/M13 Q1012 NOSIG
  • 252030Z 07026G39KT 9999 FEW033 M03/M13 Q1012 NOSIG

TAF TAF LDPL
Valid from the 25 at 18:00 until the 26 at 18:00 UTC


251725Z 2518/2618 06025KT CAVOK TXM02/2613Z TNM05/2605Z
TEMPO 2518/2603 06025G40KT
No reported NOTAMs for that airfield.
1 SIGMET reported for the Zagreb FIR (LDZO) :
 
Severe turbulence
LDZO SIGMET 10 VALID 252200/260200 LDZA
LDZO ZAGREB FIR SEV TURB FCST WI N4433 E01321 - N4517 E01303 - N4533 E01323 - N4537 E01432 - N4224 E01830 - N4204 E01826 - N4433 E01321 SFC/6000FT STNR NC=



MET'MAP, your aeronautical weather chart ! - Copyright ORBIFLY December 2007 - Disclaimer

ORBIFLY MET'MAP TEAM :

Programming & Development : Alexandra Zaïnal
Concept & Development : Baudouin d'Aumeries
Co-Development & Prog : Marc-Olivier Méhu
Technical & hardware support : Manuel Goepfert

Contact : metmap@orbifly.com




SOURCES & CREDITS :

   NOAA